Time;durP1;ratioP1;P1;durP2;ratioP2;P2;SDS_P1;SDS_P2;PMS_P1;PMS_P2;Temp;Humidity;BMP_temperature;BMP_pressure;BME280_temperature;BME280_humidity;BME280_pressure;Samples;Min_cycle;Max_cycle;Signal;HPM_P1;HPM_P2
2023/05/18 00:01:52;;;;;;;11.43;3.83;;;;;;;;;;4989413;28;20057;-76
2023/05/18 00:04:38;;;;;;;11.35;4.55;;;;;;;;;;4990203;28;20030;-77
2023/05/18 00:07:23;;;;;;;10.48;4.70;;;;;;;;;;4999676;28;20369;-77
2023/05/18 00:10:08;;;;;;;6.20;3.45;;;;;;;;;;5011862;28;20112;-80
2023/05/18 00:12:54;;;;;;;10.55;4.18;;;;;;;;;;5013648;28;20056;-71
2023/05/18 00:15:39;;;;;;;8.55;3.65;;;;;;;;;;5004662;28;20084;-70
2023/05/18 00:18:26;;;;;;;8.95;4.00;;;;;;;;;;4998409;28;20120;-71
2023/05/18 00:21:12;;;;;;;8.40;4.15;;;;;;;;;;5013484;28;20473;-71
2023/05/18 00:23:57;;;;;;;8.40;4.30;;;;;;;;;;4983945;28;20038;-71
2023/05/18 00:26:43;;;;;;;7.82;3.72;;;;;;;;;;5002512;28;20033;-70
2023/05/18 00:29:28;;;;;;;6.78;3.38;;;;;;;;;;4973807;28;20516;-77
2023/05/18 00:32:13;;;;;;;7.05;3.58;;;;;;;;;;4994390;28;20029;-77
2023/05/18 00:34:59;;;;;;;9.32;4.38;;;;;;;;;;5001531;28;20025;-77
2023/05/18 00:37:44;;;;;;;10.77;4.40;;;;;;;;;;5010212;28;20021;-77
2023/05/18 00:40:29;;;;;;;5.75;3.90;;;;;;;;;;4994374;28;20157;-77
2023/05/18 00:43:15;;;;;;;8.20;3.53;;;;;;;;;;4986752;28;20384;-77
2023/05/18 00:46:00;;;;;;;11.70;3.80;;;;;;;;;;4984127;28;20083;-79
2023/05/18 00:48:45;;;;;;;9.68;4.10;;;;;;;;;;5005476;28;20022;-76
2023/05/18 00:51:31;;;;;;;7.05;3.90;;;;;;;;;;5012714;28;20025;-79
2023/05/18 00:54:18;;;;;;;6.43;4.13;;;;;;;;;;5006519;28;20116;-78
2023/05/18 00:57:04;;;;;;;9.27;4.32;;;;;;;;;;4988475;28;20491;-79
2023/05/18 00:59:50;;;;;;;7.03;3.40;;;;;;;;;;4983210;28;20416;-80
2023/05/18 01:02:35;;;;;;;8.82;4.05;;;;;;;;;;4988176;28;20042;-81
2023/05/18 01:05:21;;;;;;;8.07;3.58;;;;;;;;;;4980571;28;20107;-71
2023/05/18 01:08:06;;;;;;;7.35;4.55;;;;;;;;;;5016109;28;20025;-69
2023/05/18 01:11:15;;;;;;;7.38;4.15;;;;;;;;;;5009546;28;20427;-70
2023/05/18 01:14:05;;;;;;;8.02;3.33;;;;;;;;;;4971569;28;20026;-69
2023/05/18 01:16:53;;;;;;;8.57;4.43;;;;;;;;;;5013832;28;20026;-70
2023/05/18 01:19:51;;;;;;;9.75;4.60;;;;;;;;;;5011567;28;20096;-69
2023/05/18 01:22:55;;;;;;;10.73;4.32;;;;;;;;;;4995276;28;20102;-68
2023/05/18 01:25:49;;;;;;;7.35;3.88;;;;;;;;;;5005236;28;20033;-78
2023/05/18 01:28:35;;;;;;;9.55;4.60;;;;;;;;;;4986697;28;20052;-77
2023/05/18 01:31:20;;;;;;;7.82;4.10;;;;;;;;;;5004239;28;20380;-77
2023/05/18 01:34:05;;;;;;;8.80;4.10;;;;;;;;;;5015800;28;20095;-77
2023/05/18 01:36:50;;;;;;;6.90;3.50;;;;;;;;;;5010837;28;20029;-77
2023/05/18 01:39:35;;;;;;;8.60;4.75;;;;;;;;;;4997886;28;20061;-77
2023/05/18 01:42:25;;;;;;;8.02;3.88;;;;;;;;;;4987675;28;20025;-78
2023/05/18 01:45:16;;;;;;;9.07;5.15;;;;;;;;;;5013285;28;20033;-69
2023/05/18 01:48:02;;;;;;;10.45;5.30;;;;;;;;;;5000833;28;20033;-76
2023/05/18 01:50:49;;;;;;;7.75;4.10;;;;;;;;;;5006558;28;20113;-76
2023/05/18 01:53:38;;;;;;;7.50;3.95;;;;;;;;;;4985775;28;20445;-77
2023/05/18 01:56:23;;;;;;;10.25;5.50;;;;;;;;;;5008383;28;20065;-77
2023/05/18 01:59:08;;;;;;;11.23;4.85;;;;;;;;;;5012926;28;20567;-75
2023/05/18 02:01:56;;;;;;;7.22;3.75;;;;;;;;;;4991384;28;20049;-70
2023/05/18 02:04:42;;;;;;;10.48;4.80;;;;;;;;;;5012582;28;20512;-78
2023/05/18 02:07:27;;;;;;;8.57;3.85;;;;;;;;;;5013883;28;20041;-77
2023/05/18 02:10:12;;;;;;;7.13;3.78;;;;;;;;;;5015516;28;20080;-78
2023/05/18 02:12:58;;;;;;;8.55;3.85;;;;;;;;;;5009562;28;20033;-81
2023/05/18 02:15:43;;;;;;;8.38;3.80;;;;;;;;;;4996994;28;20028;-81
2023/05/18 02:18:29;;;;;;;9.07;4.28;;;;;;;;;;5012552;28;20044;-80
2023/05/18 02:21:14;;;;;;;9.75;3.95;;;;;;;;;;5014841;28;20039;-71
2023/05/18 02:23:59;;;;;;;7.72;3.95;;;;;;;;;;4985772;28;20036;-78
2023/05/18 02:26:44;;;;;;;8.70;4.20;;;;;;;;;;4982298;28;20049;-77
2023/05/18 02:29:30;;;;;;;7.40;4.03;;;;;;;;;;5001894;28;20029;-77
2023/05/18 02:32:15;;;;;;;9.30;3.72;;;;;;;;;;5000574;28;20032;-77
2023/05/18 02:35:01;;;;;;;8.43;4.15;;;;;;;;;;5009654;28;20029;-77
2023/05/18 02:37:48;;;;;;;10.90;4.22;;;;;;;;;;5008859;28;20397;-71
2023/05/18 02:40:34;;;;;;;7.38;3.72;;;;;;;;;;5002597;28;20117;-75
2023/05/18 02:43:19;;;;;;;10.05;4.25;;;;;;;;;;4996780;28;20063;-75
2023/05/18 02:46:04;;;;;;;9.13;4.07;;;;;;;;;;4998277;28;21112;-75
2023/05/18 02:48:50;;;;;;;8.55;4.25;;;;;;;;;;4994262;28;20021;-75
2023/05/18 02:51:35;;;;;;;8.18;3.83;;;;;;;;;;4999501;28;20032;-75
2023/05/18 02:54:21;;;;;;;9.23;5.05;;;;;;;;;;4997814;28;20022;-75
2023/05/18 02:57:06;;;;;;;8.77;4.38;;;;;;;;;;4992855;28;20029;-68
2023/05/18 02:59:51;;;;;;;9.18;4.25;;;;;;;;;;4989192;28;20033;-76
2023/05/18 03:02:37;;;;;;;10.50;4.05;;;;;;;;;;5001798;28;20189;-76
2023/05/18 03:05:23;;;;;;;9.32;4.28;;;;;;;;;;4995572;28;20162;-76
2023/05/18 03:08:09;;;;;;;7.78;4.38;;;;;;;;;;5003550;28;20037;-76
2023/05/18 03:10:54;;;;;;;8.60;4.75;;;;;;;;;;4999188;28;20108;-77
2023/05/18 03:13:39;;;;;;;9.25;4.32;;;;;;;;;;4985419;28;20056;-76
2023/05/18 03:16:27;;;;;;;7.65;4.05;;;;;;;;;;5002158;28;20040;-78
2023/05/18 03:19:14;;;;;;;9.07;4.95;;;;;;;;;;4985417;28;20037;-70
2023/05/18 03:21:59;;;;;;;8.07;4.35;;;;;;;;;;5004219;28;20388;-70
2023/05/18 03:24:45;;;;;;;8.77;4.70;;;;;;;;;;4998344;28;20358;-71
2023/05/18 03:27:30;;;;;;;6.88;4.25;;;;;;;;;;5004988;28;20040;-69
2023/05/18 03:30:15;;;;;;;10.23;4.55;;;;;;;;;;5013182;28;20021;-71
2023/05/18 03:33:01;;;;;;;10.38;4.38;;;;;;;;;;5004139;28;20084;-82
2023/05/18 03:35:47;;;;;;;9.30;4.40;;;;;;;;;;4999782;28;20101;-75
2023/05/18 03:38:32;;;;;;;10.35;5.32;;;;;;;;;;4992957;28;20147;-75
2023/05/18 03:41:17;;;;;;;8.68;4.63;;;;;;;;;;5001461;28;20461;-76
2023/05/18 03:44:03;;;;;;;8.75;4.15;;;;;;;;;;5000193;28;20029;-76
2023/05/18 03:46:48;;;;;;;10.35;4.38;;;;;;;;;;4992804;28;20046;-75
2023/05/18 03:49:33;;;;;;;9.52;4.93;;;;;;;;;;4981538;28;20113;-75
2023/05/18 03:52:21;;;;;;;9.70;4.53;;;;;;;;;;4994624;28;20404;-70
2023/05/18 03:55:06;;;;;;;7.15;3.92;;;;;;;;;;5001945;28;20037;-79
2023/05/18 03:57:52;;;;;;;8.23;4.47;;;;;;;;;;4999797;28;20054;-78
2023/05/18 04:00:37;;;;;;;10.40;4.88;;;;;;;;;;4998214;28;20052;-77
2023/05/18 04:03:25;;;;;;;10.18;5.05;;;;;;;;;;5000052;28;20132;-76
2023/05/18 04:06:10;;;;;;;8.10;4.22;;;;;;;;;;4979523;28;20043;-78
2023/05/18 04:08:56;;;;;;;12.55;6.05;;;;;;;;;;5005728;28;20017;-77
2023/05/18 04:11:41;;;;;;;10.00;4.63;;;;;;;;;;4987462;28;20021;-74
2023/05/18 04:14:26;;;;;;;7.50;4.18;;;;;;;;;;4994604;28;20021;-81
2023/05/18 04:17:12;;;;;;;8.00;4.57;;;;;;;;;;4991487;28;20477;-82
2023/05/18 04:19:57;;;;;;;9.07;4.93;;;;;;;;;;4988044;28;20026;-82
2023/05/18 04:22:45;;;;;;;8.60;4.93;;;;;;;;;;4990312;28;20109;-82
2023/05/18 04:25:30;;;;;;;7.93;4.70;;;;;;;;;;4988602;28;20022;-80
2023/05/18 04:28:15;;;;;;;9.38;4.50;;;;;;;;;;4986787;28;20515;-77
2023/05/18 04:31:01;;;;;;;9.10;4.53;;;;;;;;;;4998900;28;20022;-72
2023/05/18 04:33:46;;;;;;;9.27;6.03;;;;;;;;;;4996727;28;20510;-70
2023/05/18 04:36:33;;;;;;;9.65;4.40;;;;;;;;;;5013831;28;20030;-71
2023/05/18 04:39:19;;;;;;;9.43;4.28;;;;;;;;;;4998940;28;20201;-72
2023/05/18 04:42:05;;;;;;;12.13;5.88;;;;;;;;;;5012039;28;20036;-72
2023/05/18 04:44:51;;;;;;;8.75;4.90;;;;;;;;;;4995677;28;20022;-71
2023/05/18 04:47:37;;;;;;;11.13;4.95;;;;;;;;;;4985213;28;20395;-71
2023/05/18 04:50:22;;;;;;;10.10;5.20;;;;;;;;;;5010654;28;20115;-77
2023/05/18 04:53:08;;;;;;;7.00;4.10;;;;;;;;;;5008284;28;20029;-75
2023/05/18 04:55:53;;;;;;;10.88;5.38;;;;;;;;;;5001945;28;20033;-75
2023/05/18 04:58:40;;;;;;;9.82;5.32;;;;;;;;;;5008482;28;20046;-75
2023/05/18 05:01:25;;;;;;;8.80;4.53;;;;;;;;;;4997768;28;20029;-74
2023/05/18 05:04:11;;;;;;;8.65;4.47;;;;;;;;;;4984787;28;20036;-74
2023/05/18 05:06:56;;;;;;;8.23;4.20;;;;;;;;;;4986106;28;20026;-75
2023/05/18 05:09:41;;;;;;;10.40;4.80;;;;;;;;;;5003915;28;20048;-71
2023/05/18 05:12:26;;;;;;;11.55;4.85;;;;;;;;;;5018096;28;20037;-71
2023/05/18 05:15:12;;;;;;;8.00;5.03;;;;;;;;;;5015779;28;20025;-70
2023/05/18 05:17:57;;;;;;;6.50;4.13;;;;;;;;;;5000582;28;20065;-71
2023/05/18 05:20:42;;;;;;;9.43;4.97;;;;;;;;;;4997034;28;20087;-72
2023/05/18 05:23:28;;;;;;;9.02;4.93;;;;;;;;;;5002244;28;20026;-71
2023/05/18 05:26:13;;;;;;;9.82;5.60;;;;;;;;;;5006446;28;20033;-82
2023/05/18 05:28:58;;;;;;;8.82;4.90;;;;;;;;;;5014213;28;20038;-79
2023/05/18 05:31:43;;;;;;;11.63;5.20;;;;;;;;;;5002155;28;20087;-80
2023/05/18 05:34:29;;;;;;;8.07;4.50;;;;;;;;;;5010973;28;20067;-79
2023/05/18 05:37:14;;;;;;;12.75;5.47;;;;;;;;;;4998269;28;20746;-80
2023/05/18 05:39:59;;;;;;;13.13;5.72;;;;;;;;;;5008261;28;20138;-79
2023/05/18 05:42:45;;;;;;;12.32;4.88;;;;;;;;;;4976449;28;20029;-76
2023/05/18 05:45:30;;;;;;;12.57;4.18;;;;;;;;;;4984666;28;20029;-78
2023/05/18 05:48:15;;;;;;;17.70;5.30;;;;;;;;;;4980533;28;20033;-77
2023/05/18 05:51:00;;;;;;;9.98;4.60;;;;;;;;;;4994521;28;20033;-78
2023/05/18 05:53:48;;;;;;;10.00;3.60;;;;;;;;;;4996035;28;20389;-79
2023/05/18 05:56:33;;;;;;;11.68;4.78;;;;;;;;;;5005898;28;20038;-78
2023/05/18 05:59:18;;;;;;;9.68;3.65;;;;;;;;;;5003013;28;20068;-77
2023/05/18 06:02:03;;;;;;;12.35;4.30;;;;;;;;;;4996636;28;20524;-75
2023/05/18 06:04:49;;;;;;;9.52;3.65;;;;;;;;;;4984993;28;20087;-74
2023/05/18 06:07:34;;;;;;;11.85;4.47;;;;;;;;;;5010945;28;20596;-71
2023/05/18 06:10:19;;;;;;;8.43;3.67;;;;;;;;;;4986095;28;20114;-71
2023/05/18 06:13:05;;;;;;;9.95;3.15;;;;;;;;;;4996410;28;20473;-71
2023/05/18 06:15:50;;;;;;;13.85;4.10;;;;;;;;;;4993537;28;20113;-70
2023/05/18 06:18:35;;;;;;;11.90;4.03;;;;;;;;;;4983736;28;20068;-71
2023/05/18 06:21:21;;;;;;;15.00;4.47;;;;;;;;;;4983324;28;20018;-81
2023/05/18 06:24:06;;;;;;;10.10;3.80;;;;;;;;;;4995165;28;20039;-68
2023/05/18 06:26:51;;;;;;;12.55;3.63;;;;;;;;;;5004650;28;20021;-63
2023/05/18 06:29:37;;;;;;;8.15;3.25;;;;;;;;;;4997125;28;20052;-69
2023/05/18 06:32:22;;;;;;;12.20;3.55;;;;;;;;;;4998272;28;20037;-69
2023/05/18 06:35:07;;;;;;;10.05;3.00;;;;;;;;;;4992761;28;20400;-72
2023/05/18 06:37:52;;;;;;;9.13;3.67;;;;;;;;;;4979644;28;20045;-76
2023/05/18 06:40:38;;;;;;;9.32;3.47;;;;;;;;;;4997384;28;20030;-65
2023/05/18 06:43:25;;;;;;;9.20;3.60;;;;;;;;;;4977217;28;20560;-66
2023/05/18 06:46:20;;;;;;;12.75;4.30;;;;;;;;;;4978276;28;20022;-64
2023/05/18 06:49:06;;;;;;;11.02;3.63;;;;;;;;;;4975091;28;20269;-62
2023/05/18 06:51:51;;;;;;;11.77;3.42;;;;;;;;;;4995120;28;20101;-63
2023/05/18 06:54:37;;;;;;;11.07;4.63;;;;;;;;;;4995518;28;20030;-74
2023/05/18 06:57:22;;;;;;;11.18;4.30;;;;;;;;;;4981212;28;20034;-75
2023/05/18 07:00:09;;;;;;;12.45;4.13;;;;;;;;;;4995038;28;20181;-85
2023/05/18 07:02:54;;;;;;;8.73;3.60;;;;;;;;;;4980569;28;20073;-80
2023/05/18 07:05:39;;;;;;;8.20;3.22;;;;;;;;;;4987963;28;20026;-80
2023/05/18 07:08:25;;;;;;;11.68;4.32;;;;;;;;;;4996295;28;20480;-79
2023/05/18 07:11:10;;;;;;;8.43;3.90;;;;;;;;;;4990626;28;20037;-90
2023/05/18 07:13:55;;;;;;;7.35;3.30;;;;;;;;;;4971633;28;20502;-74
2023/05/18 07:16:42;;;;;;;10.32;3.90;;;;;;;;;;4992835;28;20032;-75
2023/05/18 07:19:28;;;;;;;9.23;3.60;;;;;;;;;;5005964;28;20034;-75
2023/05/18 07:22:13;;;;;;;13.90;4.90;;;;;;;;;;4978594;28;20160;-72
2023/05/18 07:24:59;;;;;;;11.57;3.95;;;;;;;;;;4991728;28;20151;-76
2023/05/18 07:27:44;;;;;;;9.05;3.55;;;;;;;;;;5007771;28;20026;-76
2023/05/18 07:30:30;;;;;;;7.60;3.30;;;;;;;;;;4988394;28;20029;-76
2023/05/18 07:33:15;;;;;;;12.50;4.03;;;;;;;;;;4983023;28;20038;-73
2023/05/18 07:36:00;;;;;;;14.82;4.00;;;;;;;;;;4998067;28;20045;-71
2023/05/18 07:38:46;;;;;;;7.88;3.30;;;;;;;;;;4985942;28;20405;-70
2023/05/18 07:41:31;;;;;;;12.88;3.63;;;;;;;;;;4991201;28;20022;-70
2023/05/18 07:44:17;;;;;;;11.68;3.95;;;;;;;;;;5000614;28;20028;-70
2023/05/18 07:47:02;;;;;;;9.60;3.63;;;;;;;;;;5000729;28;20017;-71
2023/05/18 07:49:47;;;;;;;9.85;3.92;;;;;;;;;;4970523;28;20381;-71
2023/05/18 07:52:32;;;;;;;12.40;3.85;;;;;;;;;;5009907;28;20018;-70
2023/05/18 07:55:18;;;;;;;9.27;3.35;;;;;;;;;;4981287;28;20040;-72
2023/05/18 07:58:03;;;;;;;11.10;3.50;;;;;;;;;;4998654;28;20309;-70
2023/05/18 08:00:48;;;;;;;10.88;4.22;;;;;;;;;;5010285;28;20040;-70
2023/05/18 08:03:34;;;;;;;8.68;3.45;;;;;;;;;;4988754;28;20405;-70
2023/05/18 08:06:19;;;;;;;9.05;3.60;;;;;;;;;;4996200;28;20025;-70
2023/05/18 08:09:05;;;;;;;8.40;3.53;;;;;;;;;;5003646;28;20503;-74
2023/05/18 08:11:51;;;;;;;10.48;3.55;;;;;;;;;;4990099;28;20443;-70
2023/05/18 08:14:36;;;;;;;9.80;3.55;;;;;;;;;;4999450;28;20572;-71
2023/05/18 08:17:21;;;;;;;8.25;3.53;;;;;;;;;;4993112;28;20109;-72
2023/05/18 08:20:07;;;;;;;9.82;4.13;;;;;;;;;;4989436;28;20124;-70
2023/05/18 08:22:52;;;;;;;9.65;3.92;;;;;;;;;;5013985;28;20063;-69
2023/05/18 08:25:38;;;;;;;8.32;3.60;;;;;;;;;;5006409;28;20104;-69
2023/05/18 08:28:23;;;;;;;8.48;3.22;;;;;;;;;;5000107;28;20060;-68
2023/05/18 08:31:08;;;;;;;6.03;3.40;;;;;;;;;;5001659;28;20271;-74
2023/05/18 08:33:53;;;;;;;9.85;3.80;;;;;;;;;;4993518;28;20037;-75
2023/05/18 08:36:39;;;;;;;6.70;3.42;;;;;;;;;;5009848;28;20044;-73
2023/05/18 08:39:25;;;;;;;9.55;3.65;;;;;;;;;;5005403;28;20442;-74
2023/05/18 08:42:25;;;;;;;9.20;3.53;;;;;;;;;;5004390;28;20053;-76
2023/05/18 08:45:14;;;;;;;11.50;3.88;;;;;;;;;;5013811;28;20057;-73
2023/05/18 08:48:01;;;;;;;11.83;4.10;;;;;;;;;;5005751;28;20036;-70
2023/05/18 08:50:48;;;;;;;9.15;3.47;;;;;;;;;;5025207;23;20053;-70
2023/05/18 08:53:34;;;;;;;12.45;4.13;;;;;;;;;;5033823;28;20049;-69
2023/05/18 08:56:23;;;;;;;8.90;3.88;;;;;;;;;;5032756;28;20108;-71
2023/05/18 08:59:09;;;;;;;11.13;4.03;;;;;;;;;;5035234;28;20037;-68
2023/05/18 09:01:55;;;;;;;10.80;3.45;;;;;;;;;;5032364;28;20070;-68
2023/05/18 09:04:43;;;;;;;8.82;2.85;;;;;;;;;;5030794;28;20025;-69
2023/05/18 09:07:29;;;;;;;7.40;3.47;;;;;;;;;;5033666;28;20554;-71
2023/05/18 09:10:14;;;;;;;10.80;3.13;;;;;;;;;;5032269;28;20029;-72
2023/05/18 09:13:01;;;;;;;8.73;3.70;;;;;;;;;;5033424;28;20380;-73
2023/05/18 09:15:46;;;;;;;10.05;3.70;;;;;;;;;;5032900;28;20028;-72
2023/05/18 09:18:32;;;;;;;11.00;3.83;;;;;;;;;;5027712;28;20482;-71
2023/05/18 09:21:17;;;;;;;9.55;3.63;;;;;;;;;;5028897;28;20421;-72
2023/05/18 09:24:02;;;;;;;12.15;4.20;;;;;;;;;;5031214;28;20036;-70
2023/05/18 09:26:48;;;;;;;11.27;4.00;;;;;;;;;;5032200;28;20103;-69
2023/05/18 09:29:33;;;;;;;9.15;3.33;;;;;;;;;;5038797;28;20075;-70
2023/05/18 09:32:18;;;;;;;6.07;2.72;;;;;;;;;;5032308;28;20025;-68
2023/05/18 09:35:05;;;;;;;7.47;3.30;;;;;;;;;;5036970;28;20033;-70
2023/05/18 09:37:52;;;;;;;10.70;4.32;;;;;;;;;;5036633;28;20523;-70
2023/05/18 09:40:37;;;;;;;7.70;3.45;;;;;;;;;;5022264;28;20472;-71
2023/05/18 09:43:22;;;;;;;8.95;3.42;;;;;;;;;;5036901;28;20041;-69
2023/05/18 09:46:07;;;;;;;10.80;3.53;;;;;;;;;;5035758;28;20119;-70
2023/05/18 09:48:54;;;;;;;6.25;3.10;;;;;;;;;;5034781;28;20388;-69
2023/05/18 09:51:39;;;;;;;5.80;3.42;;;;;;;;;;5020136;28;20411;-68
2023/05/18 09:54:24;;;;;;;8.73;3.28;;;;;;;;;;5019718;28;20451;-69
2023/05/18 09:57:10;;;;;;;9.52;3.60;;;;;;;;;;5017758;28;20480;-70
2023/05/18 10:00:01;;;;;;;11.90;3.97;;;;;;;;;;5023479;28;20028;-70
2023/05/18 10:02:47;;;;;;;12.13;3.25;;;;;;;;;;5036530;28;20025;-68
2023/05/18 10:05:33;;;;;;;6.00;3.10;;;;;;;;;;5036286;28;20855;-67
2023/05/18 10:08:19;;;;;;;8.15;3.17;;;;;;;;;;5023054;28;20037;-67
2023/05/18 10:11:04;;;;;;;11.48;3.30;;;;;;;;;;5020755;28;20748;-70
2023/05/18 10:13:54;;;;;;;12.90;4.55;;;;;;;;;;5026574;28;20488;-69
2023/05/18 10:16:40;;;;;;;7.15;3.83;;;;;;;;;;5022180;28;20028;-69
2023/05/18 10:19:26;;;;;;;8.18;3.30;;;;;;;;;;5034463;28;20032;-86
2023/05/18 10:22:14;;;;;;;9.40;3.10;;;;;;;;;;5033701;28;20036;-75
2023/05/18 10:25:02;;;;;;;8.98;3.60;;;;;;;;;;5033077;28;20537;-75
2023/05/18 10:27:54;;;;;;;9.20;2.97;;;;;;;;;;5021898;28;20033;-75
2023/05/18 10:30:42;;;;;;;8.15;3.35;;;;;;;;;;5026922;28;20037;-75
2023/05/18 10:33:29;;;;;;;10.48;3.30;;;;;;;;;;5034772;28;20025;-75
2023/05/18 10:36:16;;;;;;;8.45;3.13;;;;;;;;;;5036072;28;20021;-75
2023/05/18 10:39:01;;;;;;;10.18;3.50;;;;;;;;;;5032588;28;20527;-70
2023/05/18 10:41:47;;;;;;;10.38;3.72;;;;;;;;;;5033947;28;20044;-72
2023/05/18 10:44:34;;;;;;;13.27;3.80;;;;;;;;;;5020426;28;20368;-71
2023/05/18 10:47:20;;;;;;;7.53;2.83;;;;;;;;;;5044918;28;20354;-72
2023/05/18 10:50:05;;;;;;;6.72;2.83;;;;;;;;;;5034128;28;20496;-70
2023/05/18 10:52:52;;;;;;;7.30;3.85;;;;;;;;;;5035161;28;20055;-70
2023/05/18 10:55:37;;;;;;;7.88;3.83;;;;;;;;;;5033698;28;20036;-73
2023/05/18 10:58:24;;;;;;;11.05;3.67;;;;;;;;;;5041444;28;20555;-73
2023/05/18 11:01:10;;;;;;;8.27;3.63;;;;;;;;;;5033327;28;20033;-75
2023/05/18 11:03:55;;;;;;;6.47;2.75;;;;;;;;;;5034887;28;20029;-73
2023/05/18 11:06:41;;;;;;;7.28;3.38;;;;;;;;;;5035018;28;20047;-74
2023/05/18 11:09:30;;;;;;;10.23;3.28;;;;;;;;;;5019723;28;20133;-75
2023/05/18 11:12:16;;;;;;;8.90;3.53;;;;;;;;;;5026022;28;20479;-69
2023/05/18 11:15:02;;;;;;;10.15;3.20;;;;;;;;;;5020482;28;20444;-68
2023/05/18 11:18:07;;;;;;;5.57;2.60;;;;;;;;;;5034652;28;20036;-70
2023/05/18 11:20:52;;;;;;;9.63;3.13;;;;;;;;;;5029381;28;20036;-72
2023/05/18 11:23:37;;;;;;;9.68;3.42;;;;;;;;;;5033185;28;20484;-71
2023/05/18 11:26:27;;;;;;;7.97;3.85;;;;;;;;;;5023025;28;20041;-71
2023/05/18 11:29:32;;;;;;;15.02;3.80;;;;;;;;;;5034972;28;20028;-70
2023/05/18 11:32:22;;;;;;;7.70;2.92;;;;;;;;;;5033826;28;20091;-70
2023/05/18 11:35:21;;;;;;;9.10;2.72;;;;;;;;;;5020867;28;20017;-69
2023/05/18 11:38:07;;;;;;;9.90;3.40;;;;;;;;;;5020624;28;20044;-68
2023/05/18 11:40:52;;;;;;;8.20;3.55;;;;;;;;;;5032608;28;20515;-68
2023/05/18 11:43:37;;;;;;;10.32;3.08;;;;;;;;;;5023895;28;20037;-67
2023/05/18 11:46:23;;;;;;;7.03;3.10;;;;;;;;;;5022025;28;20531;-68
2023/05/18 11:49:08;;;;;;;10.75;4.20;;;;;;;;;;5032533;28;20041;-72
2023/05/18 11:52:01;;;;;;;8.57;3.33;;;;;;;;;;5024026;28;20036;-69
2023/05/18 11:54:56;;;;;;;10.32;3.13;;;;;;;;;;5022576;28;20233;-72
2023/05/18 11:57:44;;;;;;;10.70;3.20;;;;;;;;;;5035852;28;20024;-70
2023/05/18 12:00:29;;;;;;;8.00;2.95;;;;;;;;;;5031742;28;20025;-70
2023/05/18 12:03:15;;;;;;;9.07;4.07;;;;;;;;;;5034054;28;20024;-70
2023/05/18 12:06:00;;;;;;;13.27;3.00;;;;;;;;;;5034192;28;20388;-70
2023/05/18 12:08:46;;;;;;;6.15;2.58;;;;;;;;;;5033776;28;20109;-81
2023/05/18 12:11:31;;;;;;;10.25;3.63;;;;;;;;;;5032357;28;20076;-70
2023/05/18 12:14:20;;;;;;;9.80;3.13;;;;;;;;;;5033638;28;20033;-70
2023/05/18 12:17:06;;;;;;;7.23;3.00;;;;;;;;;;5033583;28;20060;-71
2023/05/18 12:19:51;;;;;;;7.78;2.75;;;;;;;;;;5033968;28;20278;-68
2023/05/18 12:22:49;;;;;;;6.60;3.17;;;;;;;;;;5033493;28;20067;-68
2023/05/18 12:25:35;;;;;;;9.50;3.63;;;;;;;;;;5032930;28;20040;-70
2023/05/18 12:28:20;;;;;;;9.88;3.47;;;;;;;;;;5033451;28;20159;-70
2023/05/18 12:31:07;;;;;;;9.85;3.10;;;;;;;;;;5035843;28;20086;-82
2023/05/18 12:33:53;;;;;;;9.63;3.13;;;;;;;;;;5030732;28;20032;-83
2023/05/18 12:36:49;;;;;;;9.80;2.85;;;;;;;;;;5034368;28;20133;-83
2023/05/18 12:39:36;;;;;;;10.70;3.17;;;;;;;;;;5034891;28;20083;-82
2023/05/18 12:42:21;;;;;;;7.95;2.85;;;;;;;;;;5031356;28;20032;-81
2023/05/18 12:45:07;;;;;;;9.27;3.55;;;;;;;;;;5028873;28;20033;-71
2023/05/18 12:47:56;;;;;;;9.30;3.30;;;;;;;;;;5030923;28;20033;-73
2023/05/18 12:50:45;;;;;;;12.00;4.07;;;;;;;;;;5032777;28;20064;-73
2023/05/18 12:53:42;;;;;;;9.35;3.72;;;;;;;;;;5025342;28;20036;-73
2023/05/18 12:56:49;;;;;;;8.40;3.03;;;;;;;;;;5016402;28;20087;-71
2023/05/18 12:59:34;;;;;;;13.82;3.17;;;;;;;;;;5019567;28;20040;-72
2023/05/18 13:02:38;;;;;;;5.35;2.45;;;;;;;;;;5032972;28;20346;-73
2023/05/18 13:05:24;;;;;;;7.35;2.70;;;;;;;;;;5028284;28;20037;-78
2023/05/18 13:08:20;;;;;;;7.55;3.22;;;;;;;;;;5037875;28;20498;-81
2023/05/18 13:11:06;;;;;;;7.57;3.17;;;;;;;;;;5038584;28;20021;-83
2023/05/18 13:13:58;;;;;;;7.45;2.90;;;;;;;;;;5031389;28;20055;-80
2023/05/18 13:16:43;;;;;;;9.07;2.53;;;;;;;;;;5036173;28;20072;-81
2023/05/18 13:19:30;;;;;;;7.28;2.78;;;;;;;;;;5037458;28;20031;-81
2023/05/18 13:22:15;;;;;;;7.45;2.72;;;;;;;;;;5022830;28;20400;-71
2023/05/18 13:25:00;;;;;;;7.82;3.15;;;;;;;;;;5036810;28;20468;-70
2023/05/18 13:27:47;;;;;;;10.75;2.88;;;;;;;;;;5036299;28;20120;-70
2023/05/18 13:30:32;;;;;;;8.48;3.05;;;;;;;;;;5039430;28;20056;-71
2023/05/18 13:33:18;;;;;;;9.65;3.20;;;;;;;;;;5032233;28;20125;-69
2023/05/18 13:36:03;;;;;;;11.55;3.30;;;;;;;;;;5023067;28;20117;-71
2023/05/18 13:38:48;;;;;;;15.68;7.20;;;;;;;;;;5036257;28;20479;-69
2023/05/18 13:41:35;;;;;;;9.13;3.70;;;;;;;;;;5037020;28;20035;-70
2023/05/18 13:44:20;;;;;;;17.67;9.15;;;;;;;;;;5033172;28;20036;-69
2023/05/18 13:47:05;;;;;;;15.43;5.93;;;;;;;;;;5035407;28;20491;-69
2023/05/18 13:49:51;;;;;;;10.15;3.95;;;;;;;;;;5036363;28;20069;-69
2023/05/18 13:52:36;;;;;;;18.05;4.85;;;;;;;;;;5036989;28;20024;-69
2023/05/18 13:55:21;;;;;;;13.27;3.85;;;;;;;;;;5022545;28;20459;-70
2023/05/18 13:58:07;;;;;;;10.10;3.55;;;;;;;;;;5038213;28;20033;-74
2023/05/18 14:00:53;;;;;;;11.25;3.38;;;;;;;;;;5028521;28;20056;-81
2023/05/18 14:03:39;;;;;;;8.05;3.22;;;;;;;;;;5034770;28;20064;-76
2023/05/18 14:06:26;;;;;;;10.18;3.50;;;;;;;;;;5036441;28;20078;-74
2023/05/18 14:09:11;;;;;;;9.07;3.53;;;;;;;;;;5036489;28;20055;-75
2023/05/18 14:11:58;;;;;;;8.57;2.72;;;;;;;;;;5035711;28;20483;-75
2023/05/18 14:14:43;;;;;;;7.15;2.75;;;;;;;;;;5034609;28;20045;-74
2023/05/18 14:17:29;;;;;;;9.43;2.90;;;;;;;;;;5035627;28;20033;-70
2023/05/18 14:20:14;;;;;;;6.10;2.28;;;;;;;;;;5023107;28;20037;-70
2023/05/18 14:23:00;;;;;;;9.13;3.42;;;;;;;;;;5025462;28;20400;-72
2023/05/18 14:25:45;;;;;;;8.75;3.40;;;;;;;;;;5035473;28;20016;-70
2023/05/18 14:28:30;;;;;;;9.98;3.20;;;;;;;;;;5021010;28;20541;-69
2023/05/18 14:31:15;;;;;;;8.02;3.00;;;;;;;;;;5038295;28;20144;-71
2023/05/18 14:34:01;;;;;;;7.65;2.97;;;;;;;;;;5034549;28;20032;-71
2023/05/18 14:36:46;;;;;;;6.63;2.50;;;;;;;;;;5036285;28;20489;-77
2023/05/18 14:39:31;;;;;;;9.68;2.90;;;;;;;;;;5035587;28;20083;-70
2023/05/18 14:42:17;;;;;;;7.78;2.67;;;;;;;;;;5033915;28;20028;-68
2023/05/18 14:45:02;;;;;;;7.85;2.53;;;;;;;;;;5035530;28;20035;-70
2023/05/18 14:47:47;;;;;;;9.18;2.50;;;;;;;;;;5034597;28;20032;-69
2023/05/18 14:50:32;;;;;;;12.88;3.17;;;;;;;;;;5028522;28;20045;-68
2023/05/18 14:53:18;;;;;;;10.55;3.38;;;;;;;;;;5019655;28;20064;-72
2023/05/18 14:56:07;;;;;;;11.77;4.45;;;;;;;;;;5029320;28;20021;-70
2023/05/18 14:58:52;;;;;;;14.80;4.97;;;;;;;;;;5026004;28;20033;-69
2023/05/18 15:01:37;;;;;;;9.35;2.72;;;;;;;;;;5029357;28;20064;-71
2023/05/18 15:04:24;;;;;;;10.77;3.50;;;;;;;;;;5028247;28;20455;-70
2023/05/18 15:07:09;;;;;;;12.07;4.38;;;;;;;;;;5028664;28;20029;-69
2023/05/18 15:09:55;;;;;;;8.43;3.45;;;;;;;;;;5028783;28;20425;-70
2023/05/18 15:12:40;;;;;;;7.88;3.22;;;;;;;;;;5024292;28;20040;-78
2023/05/18 15:15:25;;;;;;;9.98;3.38;;;;;;;;;;5028067;28;20113;-82
2023/05/18 15:18:11;;;;;;;6.80;2.90;;;;;;;;;;5029015;28;20120;-79
2023/05/18 15:20:56;;;;;;;12.38;3.20;;;;;;;;;;5030139;28;20021;-79
2023/05/18 15:23:42;;;;;;;6.82;3.10;;;;;;;;;;5029190;28;20085;-82
2023/05/18 15:26:27;;;;;;;10.15;2.85;;;;;;;;;;5031638;28;20029;-80
2023/05/18 15:29:13;;;;;;;7.72;2.80;;;;;;;;;;5028446;28;20080;-81
2023/05/18 15:31:58;;;;;;;6.90;2.63;;;;;;;;;;5028761;28;20025;-76
2023/05/18 15:34:43;;;;;;;6.90;2.80;;;;;;;;;;5007322;28;20034;-71
2023/05/18 15:37:28;;;;;;;8.52;4.03;;;;;;;;;;5021818;28;20063;-70
2023/05/18 15:40:15;;;;;;;8.10;3.28;;;;;;;;;;5027993;28;20029;-71
2023/05/18 15:43:00;;;;;;;5.97;2.63;;;;;;;;;;5028361;28;20037;-70
2023/05/18 15:45:45;;;;;;;6.07;2.83;;;;;;;;;;5028401;28;20037;-71
2023/05/18 15:48:30;;;;;;;8.10;2.85;;;;;;;;;;5028372;28;20091;-72
2023/05/18 15:51:16;;;;;;;8.10;2.70;;;;;;;;;;5027793;28;20048;-71
2023/05/18 15:54:01;;;;;;;7.75;3.15;;;;;;;;;;5026988;28;20116;-74
2023/05/18 15:56:46;;;;;;;10.73;3.40;;;;;;;;;;5020305;28;20393;-74
2023/05/18 15:59:31;;;;;;;7.75;2.90;;;;;;;;;;5028085;28;20504;-74
2023/05/18 16:02:17;;;;;;;7.57;2.95;;;;;;;;;;5028056;28;20014;-75
2023/05/18 16:05:02;;;;;;;12.68;3.78;;;;;;;;;;5016844;28;20427;-74
2023/05/18 16:07:47;;;;;;;11.05;3.38;;;;;;;;;;5027471;28;20033;-75
2023/05/18 16:10:33;;;;;;;8.98;3.25;;;;;;;;;;5027135;28;20037;-70
2023/05/18 16:13:18;;;;;;;8.77;3.17;;;;;;;;;;5027753;28;20469;-69
2023/05/18 16:16:05;;;;;;;11.00;4.28;;;;;;;;;;5015213;28;20041;-69
2023/05/18 16:18:51;;;;;;;8.35;3.75;;;;;;;;;;5027970;28;20118;-71
2023/05/18 16:21:36;;;;;;;9.55;3.75;;;;;;;;;;5014250;28;20045;-71
2023/05/18 16:24:21;;;;;;;8.93;3.45;;;;;;;;;;5025666;28;20059;-71
2023/05/18 16:27:06;;;;;;;11.40;2.97;;;;;;;;;;5014205;28;20072;-80
2023/05/18 16:29:52;;;;;;;8.02;3.22;;;;;;;;;;5030815;28;20108;-71
2023/05/18 16:32:37;;;;;;;9.82;3.67;;;;;;;;;;5027516;28;20611;-72